»·PEaware :: UAL280 KSBA-KSFO

UAL280 :: KSBA-KSFO

FLIGHT INFORMATION

Flight Status: Arrived
Operator:
United Airlines
More flights by this operator :: More flights under this callsign
Pilot: Ion I. (24133)
Aircraft: BOEING 737-800
(B738)
More flights by this aircraft type
Origin: KSBA Santa Barbara Mun
United States
Destination: KSFO San Francisco Intl
United States
More flights between these airports :: More routes between these airports
Route: +GAUCH2 MQO SERFR SERFR4
File this flight plan on PilotEdge
Remarks:
Altitude:
(Current/Filed)
30,000ft
Speed:
(Current/Filed)
460kts
Departed: 26-Aug-20 12:04 PM
Arrived: 26-Aug-20 12:47 PM
Distance/Time
Traveled:
228nm/0:43
Distance/Time
To Go:
Arrived

Flight Plot

Page will automatically refresh every two minutes.

Flight plan parsing failed; only flown route is shown


Map Options




Map Legend


Flown Route
Filed Route
Departure Airport
Arrival Airport
Navaid (VOR, NDB)
Fix

Horizontal Profiles

Position Reports

Time Latitude Longitude Heading Altitude Ground
Speed
26-Aug-20 11:36 34.425116 -119.837238 114 18ft 0kts
26-Aug-20 11:37 34.425116 -119.837238 114 18ft 0kts
26-Aug-20 11:38 34.425116 -119.837238 114 18ft 0kts
26-Aug-20 11:39 34.425116 -119.837238 114 17ft 0kts
26-Aug-20 11:40 34.425116 -119.837238 114 18ft 0kts
26-Aug-20 11:41 34.425116 -119.837238 114 18ft 0kts
26-Aug-20 11:42 34.425116 -119.837238 114 18ft 0kts
26-Aug-20 11:43 34.425116 -119.837238 114 18ft 0kts
26-Aug-20 11:44 34.425116 -119.837238 114 18ft 0kts
26-Aug-20 11:45 34.425116 -119.837238 114 18ft 0kts
26-Aug-20 11:46 34.425116 -119.837238 114 18ft 0kts
26-Aug-20 11:47 34.425116 -119.837238 114 18ft 0kts
26-Aug-20 11:48 34.425116 -119.837238 114 18ft 0kts
26-Aug-20 11:49 34.425116 -119.837238 114 18ft 0kts
26-Aug-20 11:50 34.425116 -119.837238 114 18ft 0kts
26-Aug-20 11:51 34.425116 -119.837238 114 18ft 0kts
26-Aug-20 11:52 34.425116 -119.837238 114 18ft 0kts
26-Aug-20 11:53 34.425116 -119.837238 114 18ft 0kts
26-Aug-20 11:54 34.425116 -119.837238 114 18ft 0kts
26-Aug-20 11:55 34.425116 -119.837238 114 18ft 0kts
26-Aug-20 11:56 34.425116 -119.837238 114 18ft 0kts
26-Aug-20 11:57 34.425187 -119.837785 44 18ft 2kts
26-Aug-20 11:58 34.425096 -119.837837 345 18ft 0kts
26-Aug-20 11:59 34.425096 -119.837837 345 18ft 0kts
26-Aug-20 12:00 34.425124 -119.837846 345 18ft 3kts
26-Aug-20 12:01 34.426744 -119.836762 88 18ft 3kts
26-Aug-20 12:02 34.427045 -119.834584 1 18ft 0kts
26-Aug-20 12:03 34.427855 -119.837325 268 18ft 68kts
26-Aug-20 12:04 34.425904 -119.886242 271 2020ft 166kts
26-Aug-20 12:05 34.425304 -119.950850 266 3122ft 249kts
26-Aug-20 12:06 34.415426 -120.035016 262 5862ft 270kts
26-Aug-20 12:07 34.403780 -120.127815 262 8011ft 285kts
26-Aug-20 12:08 34.392214 -120.222323 262 8024ft 283kts
26-Aug-20 12:09 34.413841 -120.303085 327 9645ft 292kts
26-Aug-20 12:10 34.493891 -120.346168 333 11494ft 349kts
26-Aug-20 12:11 34.587765 -120.397464 333 13649ft 381kts
26-Aug-20 12:12 34.686568 -120.451215 333 16024ft 398kts
26-Aug-20 12:13 34.789719 -120.506944 332 18192ft 414kts
26-Aug-20 12:14 34.897018 -120.565215 332 20169ft 428kts
26-Aug-20 12:15 35.007412 -120.625239 332 22005ft 440kts
26-Aug-20 12:16 35.115309 -120.684291 332 23457ft 453kts
26-Aug-20 12:17 35.226482 -120.745371 332 24872ft 463kts
26-Aug-20 12:18 35.339401 -120.822408 324 26234ft 468kts
26-Aug-20 12:19 35.451320 -120.905968 324 27506ft 477kts
26-Aug-20 12:20 35.566317 -120.991025 324 28813ft 482kts
26-Aug-20 12:21 35.680964 -121.075632 323 29887ft 482kts
26-Aug-20 12:22 35.790045 -121.156674 323 29901ft 480kts
26-Aug-20 12:23 35.904393 -121.241737 322 29718ft 477kts
26-Aug-20 12:24 36.016352 -121.325734 322 28714ft 465kts
26-Aug-20 12:25 36.125611 -121.409158 321 27715ft 457kts
26-Aug-20 12:26 36.231054 -121.491714 322 25930ft 443kts
26-Aug-20 12:28 36.334183 -121.572208 323 23930ft 431kts
26-Aug-20 12:29 36.434248 -121.651029 323 21947ft 420kts
26-Aug-20 12:30 36.530951 -121.727172 323 20291ft 401kts
26-Aug-20 12:31 36.623691 -121.800558 324 18428ft 390kts
26-Aug-20 12:32 36.713868 -121.872208 324 16623ft 378kts
26-Aug-20 12:33 36.811946 -121.914685 346 14824ft 370kts
26-Aug-20 12:34 36.910429 -121.941356 345 13100ft 353kts
26-Aug-20 12:35 36.994951 -121.968549 340 11599ft 340kts
26-Aug-20 12:36 37.083701 -122.004263 341 10241ft 325kts
26-Aug-20 12:37 37.164293 -122.035912 342 9831ft 286kts
26-Aug-20 12:38 37.239256 -122.065336 342 8616ft 277kts
26-Aug-20 12:39 37.312592 -122.094171 342 7242ft 277kts
26-Aug-20 12:40 37.385341 -122.122756 343 5445ft 262kts
26-Aug-20 12:41 37.450721 -122.144757 344 4331ft 224kts
26-Aug-20 12:42 37.510870 -122.165390 343 3397ft 219kts
26-Aug-20 12:43 37.550411 -122.212139 297 2487ft 190kts
26-Aug-20 12:44 37.573373 -122.266811 298 1564ft 165kts
26-Aug-20 12:44 37.590119 -122.306925 301 936ft 142kts
26-Aug-20 12:46 37.610080 -122.354268 294 116ft 122kts
26-Aug-20 12:47 37.619341 -122.376498 297 21ft 28kts
26-Aug-20 12:47 37.619152 -122.380080 244 21ft 11kts
26-Aug-20 12:48 37.620924 -122.385036 297 21ft 19kts
26-Aug-20 12:49 37.622438 -122.390299 254 21ft 16kts
26-Aug-20 12:50 37.619581 -122.390192 117 21ft 13kts
26-Aug-20 12:52 37.619649 -122.388306 26 21ft 1kts
26-Aug-20 12:52 37.619743 -122.388246 26 21ft 0kts

Navigation Log

Ident Type
Flight plan parsing failed, navigation log unavailable